Time;durP1;ratioP1;P1;durP2;ratioP2;P2;SDS_P1;SDS_P2;PMS_P1;PMS_P2;Temp;Humidity;BMP_temperature;BMP_pressure;BME280_temperature;BME280_humidity;BME280_pressure;Samples;Min_cycle;Max_cycle;Signal;HPM_P1;HPM_P2
2023/01/24 00:00:31;;;;;;;27.30;11.13;;;;;;;1.84;100.00;97502.34;5037246;28;20209;-66
2023/01/24 00:02:58;;;;;;;32.03;11.17;;;;;;;1.90;100.00;97491.59;5036016;28;20197;-67
2023/01/24 00:05:24;;;;;;;30.17;9.83;;;;;;;1.84;100.00;97497.97;5035202;28;20193;-67
2023/01/24 00:07:51;;;;;;;29.70;9.30;;;;;;;1.89;100.00;97503.75;5036952;28;20550;-67
2023/01/24 00:10:18;;;;;;;26.00;9.00;;;;;;;1.88;100.00;97498.63;5036967;28;20200;-66
2023/01/24 00:12:45;;;;;;;31.50;9.90;;;;;;;1.98;100.00;97497.16;5036246;28;20201;-66
2023/01/24 00:15:12;;;;;;;29.33;9.83;;;;;;;1.95;100.00;97499.94;5035490;28;20238;-67
2023/01/24 00:17:38;;;;;;;24.00;9.17;;;;;;;1.94;100.00;97500.88;5036419;28;20212;-67
2023/01/24 00:20:05;;;;;;;25.93;10.03;;;;;;;1.93;100.00;97507.00;5036138;28;20205;-66
2023/01/24 00:22:32;;;;;;;31.87;11.30;;;;;;;1.93;100.00;97512.19;5036433;28;20201;-67
2023/01/24 00:24:59;;;;;;;22.50;8.83;;;;;;;1.85;100.00;97506.63;5035930;28;20212;-67
2023/01/24 00:27:25;;;;;;;28.70;10.13;;;;;;;1.87;100.00;97510.81;5036207;28;20212;-67
2023/01/24 00:29:53;;;;;;;29.17;10.60;;;;;;;1.96;100.00;97512.00;5036095;28;20783;-67
2023/01/24 00:32:19;;;;;;;27.13;8.73;;;;;;;1.78;100.00;97507.91;5036319;28;20204;-66
2023/01/24 00:34:46;;;;;;;22.53;7.30;;;;;;;1.88;100.00;97509.03;5035096;28;20228;-66
2023/01/24 00:37:12;;;;;;;27.77;10.20;;;;;;;1.87;100.00;97502.16;5036407;28;20213;-67
2023/01/24 00:39:39;;;;;;;29.17;10.80;;;;;;;1.92;100.00;97502.72;5036250;28;20229;-67
2023/01/24 00:42:05;;;;;;;27.50;9.17;;;;;;;1.89;100.00;97492.53;5035784;28;20205;-67
2023/01/24 00:44:32;;;;;;;29.27;10.00;;;;;;;1.91;100.00;97499.28;5035372;28;20665;-67
2023/01/24 00:47:00;;;;;;;23.33;8.70;;;;;;;2.06;100.00;97495.75;5039041;28;20288;-67
2023/01/24 00:49:26;;;;;;;25.90;9.57;;;;;;;2.02;100.00;97503.81;5039845;28;21082;-68
2023/01/24 00:51:53;;;;;;;19.63;7.67;;;;;;;1.94;100.00;97504.28;5040335;28;20205;-67
2023/01/24 00:54:19;;;;;;;25.47;9.40;;;;;;;1.92;100.00;97511.38;5039249;28;20275;-67
2023/01/24 00:56:46;;;;;;;20.70;7.57;;;;;;;1.97;100.00;97498.94;5040296;28;20219;-67
2023/01/24 00:59:12;;;;;;;31.40;10.70;;;;;;;1.97;100.00;97505.88;5039933;28;20221;-67
2023/01/24 01:01:40;;;;;;;28.13;10.27;;;;;;;1.98;100.00;97505.78;5039530;28;20204;-67
2023/01/24 01:04:07;;;;;;;34.43;10.50;;;;;;;1.99;100.00;97509.22;5039556;28;20822;-67
2023/01/24 01:06:34;;;;;;;25.50;9.47;;;;;;;1.96;100.00;97510.25;5039583;28;20205;-67
2023/01/24 01:09:01;;;;;;;23.93;9.37;;;;;;;1.97;100.00;97518.88;5039280;28;20228;-68
2023/01/24 01:11:27;;;;;;;33.27;11.03;;;;;;;1.99;100.00;97515.25;5040877;28;20209;-67
2023/01/24 01:13:55;;;;;;;26.63;9.73;;;;;;;2.01;100.00;97504.75;5038849;28;20201;-67
2023/01/24 01:16:22;;;;;;;26.03;9.30;;;;;;;1.93;100.00;97522.59;5039019;28;20538;-67
2023/01/24 01:18:49;;;;;;;33.63;9.60;;;;;;;1.92;100.00;97520.91;5039843;28;20224;-68
2023/01/24 01:21:21;;;;;;;29.80;9.40;;;;;;;2.08;100.00;97511.25;5040394;28;20201;-67
2023/01/24 01:23:48;;;;;;;33.50;10.67;;;;;;;1.99;100.00;97519.63;5038578;28;20981;-68
2023/01/24 01:26:17;;;;;;;29.87;10.87;;;;;;;2.05;100.00;97516.63;5039592;28;20216;-67
2023/01/24 01:28:43;;;;;;;24.53;8.10;;;;;;;1.95;100.00;97521.56;5039986;28;20225;-68
2023/01/24 01:31:10;;;;;;;26.67;10.13;;;;;;;1.95;100.00;97516.38;5039029;28;20291;-68
2023/01/24 01:33:37;;;;;;;33.50;10.53;;;;;;;1.90;100.00;97521.00;5038852;28;20236;-68
2023/01/24 01:36:04;;;;;;;23.63;8.47;;;;;;;1.99;100.00;97528.25;5039615;28;20232;-67
2023/01/24 01:38:31;;;;;;;26.20;10.63;;;;;;;2.02;100.00;97529.81;5038667;28;20236;-68
2023/01/24 01:40:59;;;;;;;25.77;9.70;;;;;;;1.95;100.00;97515.53;5039174;28;20205;-67
2023/01/24 01:43:27;;;;;;;22.63;8.83;;;;;;;1.99;100.00;97517.03;5038901;28;20197;-67
2023/01/24 01:45:55;;;;;;;31.67;10.03;;;;;;;1.99;100.00;97519.63;5038244;28;20764;-68
2023/01/24 01:48:29;;;;;;;29.20;10.13;;;;;;;2.00;100.00;97523.91;5038868;28;21053;-68
2023/01/24 01:51:03;;;;;;;30.97;10.17;;;;;;;2.12;100.00;97531.75;5039179;28;20209;-69
2023/01/24 01:53:42;;;;;;;30.30;10.93;;;;;;;2.17;100.00;97526.28;5038559;28;21391;-68
2023/01/24 01:56:17;;;;;;;31.50;11.40;;;;;;;2.04;100.00;97531.41;5038285;28;20229;-67
2023/01/24 01:58:44;;;;;;;28.17;10.53;;;;;;;1.97;100.00;97530.13;5038197;28;20235;-68
2023/01/24 02:01:11;;;;;;;31.07;10.00;;;;;;;2.08;100.00;97529.44;5039162;28;20197;-68
2023/01/24 02:03:45;;;;;;;31.80;11.10;;;;;;;2.10;100.00;97533.63;5038021;28;20205;-68
2023/01/24 02:06:24;;;;;;;28.07;10.20;;;;;;;2.05;100.00;97535.66;5038708;28;20233;-68
2023/01/24 02:08:52;;;;;;;32.13;10.00;;;;;;;2.05;100.00;97538.28;5038950;28;20591;-68
2023/01/24 02:16:48;;;;;;;27.40;9.67;;;;;;;1.87;100.00;97543.75;5038281;28;20229;-68
2023/01/24 02:19:27;;;;;;;31.83;10.87;;;;;;;2.10;100.00;97538.81;5038165;28;20240;-68
2023/01/24 02:22:02;;;;;;;24.57;9.47;;;;;;;2.01;100.00;97549.78;5038414;28;20556;-67
2023/01/24 02:24:37;;;;;;;27.20;9.97;;;;;;;2.15;100.00;97543.72;5038588;28;20324;-68
2023/01/24 02:27:05;;;;;;;29.53;10.50;;;;;;;2.06;100.00;97550.34;5037955;28;20201;-68
2023/01/24 02:29:32;;;;;;;29.63;10.23;;;;;;;1.95;100.00;97552.75;5038181;28;20593;-67
2023/01/24 02:32:00;;;;;;;30.53;10.83;;;;;;;2.03;100.00;97544.50;5039034;28;20201;-67
2023/01/24 02:34:28;;;;;;;29.40;11.13;;;;;;;1.98;100.00;97546.53;5037191;28;20824;-67
2023/01/24 02:36:57;;;;;;;29.03;11.07;;;;;;;1.95;100.00;97544.97;5037648;28;20201;-68
2023/01/24 02:39:27;;;;;;;28.13;10.13;;;;;;;2.04;100.00;97548.78;5038113;28;21154;-68
2023/01/24 02:41:57;;;;;;;24.33;8.50;;;;;;;2.03;100.00;97545.31;5037984;28;20196;-68
2023/01/24 02:44:37;;;;;;;33.20;11.23;;;;;;;2.13;100.00;97546.44;5037246;28;20209;-68
2023/01/24 02:47:04;;;;;;;27.43;9.87;;;;;;;2.04;100.00;97546.16;5037945;28;20217;-68
2023/01/24 02:49:31;;;;;;;19.63;8.70;;;;;;;2.02;100.00;97537.63;5037677;28;20221;-68
2023/01/24 02:54:42;;;;;;;28.60;10.57;;;;;;;1.89;100.00;97547.09;5036699;28;20297;-67
2023/01/24 02:59:54;;;;;;;32.10;10.97;;;;;;;1.97;100.00;97547.47;5037423;28;20263;-67
2023/01/24 04:50:29;;;;;;;31.97;11.40;;;;;;;2.30;100.00;97582.63;5034615;28;20240;-67
2023/01/24 04:52:56;;;;;;;32.40;9.70;;;;;;;2.09;100.00;97585.72;5035029;28;20201;-67
2023/01/24 04:55:22;;;;;;;37.47;11.63;;;;;;;2.12;100.00;97590.72;5035619;28;20221;-67
2023/01/24 04:57:49;;;;;;;29.47;10.73;;;;;;;1.99;100.00;97590.63;5036441;28;20209;-67
2023/01/24 05:00:16;;;;;;;30.23;9.87;;;;;;;2.07;100.00;97587.56;5035949;28;20202;-67
2023/01/24 05:02:43;;;;;;;32.60;10.80;;;;;;;2.04;100.00;97587.75;5035900;28;20202;-68
2023/01/24 05:05:09;;;;;;;34.83;10.83;;;;;;;2.01;100.00;97583.59;5035527;28;20805;-67
2023/01/24 05:07:37;;;;;;;36.73;11.80;;;;;;;2.03;100.00;97584.31;5036094;28;20208;-68
2023/01/24 05:10:04;;;;;;;28.57;10.40;;;;;;;2.04;100.00;97583.38;5036224;28;20644;-67
2023/01/24 05:12:31;;;;;;;29.87;11.00;;;;;;;2.00;100.00;97591.47;5036352;28;20209;-67
2023/01/24 05:14:57;;;;;;;30.37;10.43;;;;;;;1.97;100.00;97591.63;5034711;28;20225;-67
2023/01/24 05:17:24;;;;;;;30.80;11.13;;;;;;;2.09;100.00;97593.53;5035960;28;20694;-68
2023/01/24 05:19:50;;;;;;;32.40;10.53;;;;;;;2.01;100.00;97593.97;5035941;28;20571;-67
2023/01/24 05:22:16;;;;;;;33.37;10.87;;;;;;;1.98;100.00;97593.31;5035832;28;20223;-67
2023/01/24 05:24:44;;;;;;;22.83;8.53;;;;;;;2.16;100.00;97590.44;5035109;28;20210;-67
2023/01/24 05:27:11;;;;;;;32.60;11.03;;;;;;;1.95;100.00;97594.34;5036098;28;20205;-67
2023/01/24 05:29:37;;;;;;;29.67;9.87;;;;;;;2.02;100.00;97582.63;5036155;28;20240;-67
2023/01/24 05:32:04;;;;;;;24.17;10.27;;;;;;;1.99;100.00;97588.03;5035392;28;20202;-67
2023/01/24 05:34:31;;;;;;;17.83;7.37;;;;;;;1.90;100.00;97587.75;5038552;28;20201;-67
2023/01/24 05:36:57;;;;;;;27.67;10.17;;;;;;;1.93;100.00;97587.56;5039296;28;20213;-68
2023/01/24 05:39:24;;;;;;;27.87;9.37;;;;;;;1.94;100.00;97597.84;5039529;28;20226;-68
2023/01/24 05:41:52;;;;;;;26.00;9.40;;;;;;;1.98;100.00;97595.91;5039245;28;20201;-68
2023/01/24 05:44:18;;;;;;;25.07;9.73;;;;;;;1.87;100.00;97591.38;5038690;28;20212;-67
2023/01/24 05:46:45;;;;;;;27.70;8.87;;;;;;;1.97;100.00;97596.84;5038788;28;20699;-67
2023/01/24 05:49:11;;;;;;;22.00;8.57;;;;;;;1.91;100.00;97592.03;5038716;28;20588;-67
2023/01/24 05:51:38;;;;;;;22.97;7.50;;;;;;;1.90;100.00;97591.19;5038981;28;20576;-67
2023/01/24 05:54:04;;;;;;;20.40;6.17;;;;;;;1.86;100.00;97596.66;5037668;28;20202;-67
2023/01/24 05:56:31;;;;;;;28.30;8.60;;;;;;;1.97;100.00;97597.69;5038580;28;20229;-68
2023/01/24 05:59:00;;;;;;;19.40;6.67;;;;;;;2.02;100.00;97600.00;5039572;28;20221;-67
2023/01/24 06:01:27;;;;;;;28.40;9.17;;;;;;;1.96;100.00;97601.22;5038944;28;20294;-67
2023/01/24 06:03:54;;;;;;;28.37;8.60;;;;;;;2.02;100.00;97607.81;5037231;28;20201;-67
2023/01/24 06:06:22;;;;;;;23.23;8.90;;;;;;;2.04;100.00;97609.38;5038201;28;20292;-67
2023/01/24 06:08:49;;;;;;;20.57;6.97;;;;;;;2.08;100.00;97610.03;5039288;28;20225;-67
2023/01/24 06:11:18;;;;;;;19.40;7.67;;;;;;;2.08;100.00;97620.44;5038380;28;20208;-67
2023/01/24 06:13:45;;;;;;;24.10;9.23;;;;;;;2.01;100.00;97624.31;5037746;28;20216;-67
2023/01/24 06:16:14;;;;;;;26.97;9.87;;;;;;;2.12;100.00;97620.16;5038652;28;20217;-68
2023/01/24 06:18:42;;;;;;;22.33;7.47;;;;;;;2.05;100.00;97628.41;5038602;28;20232;-67
2023/01/24 06:21:16;;;;;;;24.13;7.87;;;;;;;2.04;100.00;97624.16;5038758;28;20216;-67
2023/01/24 06:23:43;;;;;;;23.70;8.37;;;;;;;1.88;100.00;97631.19;5037913;28;20236;-67
2023/01/24 06:26:10;;;;;;;23.03;8.30;;;;;;;2.03;100.00;97628.50;5038640;28;20236;-67
2023/01/24 06:28:37;;;;;;;21.63;8.57;;;;;;;2.01;100.00;97624.31;5038324;28;20657;-68
2023/01/24 06:31:10;;;;;;;31.27;10.03;;;;;;;2.06;100.00;97625.75;5038440;28;20212;-68
2023/01/24 06:33:49;;;;;;;21.80;8.33;;;;;;;2.19;100.00;97628.41;5037334;28;20205;-68
2023/01/24 06:36:37;;;;;;;23.77;8.83;;;;;;;2.16;100.00;97626.00;5038338;28;20216;-68
2023/01/24 06:39:04;;;;;;;25.83;9.10;;;;;;;2.04;100.00;97629.34;5038060;28;21062;-68
2023/01/24 06:41:31;;;;;;;21.60;7.93;;;;;;;2.07;100.00;97634.34;5038025;28;20225;-67
2023/01/24 06:43:58;;;;;;;28.37;9.37;;;;;;;2.03;100.00;97627.69;5037037;28;20872;-68
2023/01/24 06:46:24;;;;;;;23.60;8.53;;;;;;;2.05;100.00;97636.19;5038258;28;20204;-68
2023/01/24 06:48:52;;;;;;;21.80;7.97;;;;;;;2.08;100.00;97634.25;5037085;28;20225;-68
2023/01/24 06:51:19;;;;;;;25.07;10.10;;;;;;;2.09;100.00;97643.75;5038024;28;20208;-67
2023/01/24 06:53:45;;;;;;;23.50;8.50;;;;;;;2.11;100.00;97646.25;5037251;28;20212;-67
2023/01/24 06:56:11;;;;;;;24.87;8.40;;;;;;;2.14;100.00;97646.91;5036962;28;20217;-68
2023/01/24 06:58:38;;;;;;;11.93;5.30;;;;;;;2.18;100.00;97651.00;5037768;28;20225;-67
2023/01/24 07:01:05;;;;;;;18.27;7.43;;;;;;;2.15;100.00;97655.53;5036100;28;20209;-67
2023/01/24 07:03:31;;;;;;;27.03;9.30;;;;;;;2.16;100.00;97658.03;5035058;28;20205;-68
2023/01/24 07:05:59;;;;;;;22.50;8.37;;;;;;;2.17;100.00;97651.91;5036167;28;20204;-67
2023/01/24 07:08:25;;;;;;;21.87;8.00;;;;;;;2.16;100.00;97659.81;5037750;28;20229;-68
2023/01/24 07:10:52;;;;;;;22.00;7.70;;;;;;;2.10;100.00;97662.75;5036767;28;20665;-68
2023/01/24 07:13:18;;;;;;;21.97;7.83;;;;;;;2.07;100.00;97660.34;5036992;28;20205;-67
2023/01/24 07:15:45;;;;;;;18.70;6.80;;;;;;;2.13;100.00;97666.03;5035733;28;20228;-67
2023/01/24 07:18:17;;;;;;;19.23;7.57;;;;;;;2.22;100.00;97672.44;5036801;28;20217;-67
2023/01/24 07:20:44;;;;;;;13.63;6.83;;;;;;;2.11;100.00;97672.25;5036397;28;20213;-67
2023/01/24 07:23:21;;;;;;;21.60;7.97;;;;;;;2.23;100.00;97672.34;5036246;28;20212;-68
2023/01/24 07:25:49;;;;;;;16.77;6.40;;;;;;;2.22;100.00;97675.06;5036218;28;20200;-67
2023/01/24 07:28:16;;;;;;;23.43;6.40;;;;;;;2.15;100.00;97684.97;5037137;28;20221;-67
2023/01/24 07:30:44;;;;;;;20.37;7.70;;;;;;;2.12;100.00;97684.31;5037094;28;20217;-68
2023/01/24 07:33:11;;;;;;;19.23;6.87;;;;;;;2.11;100.00;97677.44;5037077;28;20555;-68
2023/01/24 07:35:37;;;;;;;19.77;7.10;;;;;;;2.09;100.00;97689.72;5036509;28;20232;-67
2023/01/24 07:38:05;;;;;;;16.03;6.17;;;;;;;2.12;100.00;97679.13;5033661;28;20244;-67
2023/01/24 07:40:33;;;;;;;13.43;4.93;;;;;;;4.10;100.00;97677.47;5034900;28;20216;-68
2023/01/24 07:43:00;;;;;;;26.95;9.15;;;;;;;4.70;100.00;97681.06;5034813;28;20439;-68
2023/01/24 07:45:27;;;;;;;23.03;8.63;;;;;;;3.01;100.00;97683.91;5034112;28;20301;-67
2023/01/24 07:47:55;;;;;;;19.50;7.17;;;;;;;3.00;100.00;97684.81;5035101;28;20215;-68
2023/01/24 07:50:22;;;;;;;24.23;7.43;;;;;;;2.60;100.00;97683.03;5035398;28;20200;-68
2023/01/24 07:52:51;;;;;;;17.60;7.10;;;;;;;2.68;100.00;97695.56;5035097;28;20200;-67
2023/01/24 07:55:18;;;;;;;25.87;7.33;;;;;;;2.38;100.00;97692.25;5033608;28;20690;-68
2023/01/24 07:57:46;;;;;;;20.63;7.53;;;;;;;2.50;100.00;97692.31;5034475;28;20220;-68
2023/01/24 08:00:14;;;;;;;19.40;6.80;;;;;;;2.43;100.00;97696.22;5034725;28;20213;-67
2023/01/24 08:02:40;;;;;;;15.27;6.37;;;;;;;2.44;100.00;97697.91;5034823;28;20304;-67
2023/01/24 08:05:08;;;;;;;15.63;6.50;;;;;;;2.35;100.00;97704.59;5033467;28;20209;-67
2023/01/24 08:07:34;;;;;;;17.83;5.97;;;;;;;2.28;100.00;97706.72;5034718;28;20201;-67
2023/01/24 08:10:00;;;;;;;14.97;6.50;;;;;;;2.31;100.00;97705.72;5035430;28;20228;-67
2023/01/24 08:12:27;;;;;;;15.83;6.30;;;;;;;2.27;100.00;97702.44;5034857;28;20692;-68
2023/01/24 08:14:55;;;;;;;17.77;6.47;;;;;;;2.36;100.00;97719.28;5033715;28;20198;-68
2023/01/24 08:17:21;;;;;;;17.87;6.03;;;;;;;2.31;100.00;97716.13;5036674;28;20235;-67
2023/01/24 08:19:48;;;;;;;14.43;6.53;;;;;;;2.38;100.00;97717.41;5036269;28;20230;-67
2023/01/24 08:22:14;;;;;;;15.43;5.73;;;;;;;2.23;100.00;97719.16;5034727;28;20205;-67
2023/01/24 08:24:41;;;;;;;18.07;6.60;;;;;;;2.22;100.00;97721.84;5034211;28;20201;-67
2023/01/24 08:27:07;;;;;;;16.00;6.93;;;;;;;2.38;100.00;97720.84;5034861;28;20203;-67
2023/01/24 08:29:34;;;;;;;17.37;6.97;;;;;;;2.38;100.00;97722.59;5034236;28;20232;-68
2023/01/24 08:32:02;;;;;;;15.93;6.80;;;;;;;2.36;100.00;97729.69;5033963;28;20217;-68
2023/01/24 08:34:28;;;;;;;11.10;5.07;;;;;;;2.25;100.00;97732.06;5034273;28;20204;-68
2023/01/24 08:36:54;;;;;;;15.10;6.43;;;;;;;2.36;100.00;97730.50;5034229;28;20229;-68
2023/01/24 08:39:21;;;;;;;15.13;6.23;;;;;;;2.41;100.00;97736.28;5034240;28;20224;-68
2023/01/24 08:41:47;;;;;;;13.10;5.27;;;;;;;2.39;100.00;97734.69;5035203;28;20203;-67
2023/01/24 08:44:15;;;;;;;13.53;5.30;;;;;;;2.46;100.00;97736.84;5034094;28;20198;-67
2023/01/24 08:46:42;;;;;;;20.37;7.17;;;;;;;2.35;100.00;97734.03;5034476;28;20228;-67
2023/01/24 08:49:12;;;;;;;15.70;6.20;;;;;;;2.44;100.00;97738.69;5034966;28;20248;-67
2023/01/24 08:51:38;;;;;;;16.47;6.43;;;;;;;2.48;100.00;97745.38;5034405;28;20227;-68
2023/01/24 08:54:06;;;;;;;17.00;6.87;;;;;;;2.43;100.00;97743.06;5033627;28;20585;-68
2023/01/24 08:56:32;;;;;;;12.33;5.43;;;;;;;2.48;100.00;97740.16;5034202;28;20940;-68
2023/01/24 08:58:59;;;;;;;20.67;6.97;;;;;;;2.57;100.00;97750.03;5034415;28;20218;-67
2023/01/24 09:01:26;;;;;;;16.57;6.30;;;;;;;2.57;100.00;97750.88;5034967;28;20212;-67
2023/01/24 09:03:54;;;;;;;12.37;5.73;;;;;;;2.57;100.00;97750.88;5033641;28;20194;-67
2023/01/24 09:06:22;;;;;;;15.73;6.97;;;;;;;2.63;100.00;97753.09;5034532;28;20559;-67
2023/01/24 09:08:51;;;;;;;13.30;5.77;;;;;;;2.45;100.00;97756.78;5038679;28;20232;-68
2023/01/24 09:11:18;;;;;;;16.57;5.83;;;;;;;2.57;100.00;97750.88;5038886;28;20209;-67
2023/01/24 09:13:44;;;;;;;14.20;6.27;;;;;;;2.67;100.00;97752.00;5038780;28;20210;-67
2023/01/24 09:16:11;;;;;;;14.07;5.97;;;;;;;2.68;100.00;97758.84;5035910;28;20239;-67
2023/01/24 09:18:37;;;;;;;16.53;6.60;;;;;;;2.68;100.00;97758.03;5038341;28;20230;-67
2023/01/24 09:21:04;;;;;;;23.10;7.50;;;;;;;2.64;100.00;97762.56;5038881;28;20204;-68
2023/01/24 09:23:32;;;;;;;13.40;5.63;;;;;;;2.65;100.00;97753.84;5037474;28;20261;-67
2023/01/24 09:25:59;;;;;;;19.07;6.40;;;;;;;2.68;100.00;97758.84;5036958;28;20197;-67
2023/01/24 09:28:25;;;;;;;12.57;5.03;;;;;;;2.69;100.00;97754.50;5038859;28;20240;-68
2023/01/24 09:30:52;;;;;;;16.43;6.13;;;;;;;2.70;100.00;97754.41;5038891;28;20199;-68
2023/01/24 09:33:19;;;;;;;14.60;6.00;;;;;;;2.76;100.00;97763.59;5038193;28;20289;-67
2023/01/24 09:35:56;;;;;;;21.63;7.07;;;;;;;2.81;100.00;97764.97;5037057;28;20257;-68
2023/01/24 09:38:24;;;;;;;10.03;4.57;;;;;;;2.54;100.00;97771.84;5038799;28;20233;-67
2023/01/24 09:40:57;;;;;;;14.60;5.63;;;;;;;2.69;100.00;97770.94;5036954;28;20286;-67
2023/01/24 09:43:41;;;;;;;14.63;6.33;;;;;;;2.83;100.00;97770.94;5037729;28;20213;-68
2023/01/24 09:46:17;;;;;;;22.07;6.40;;;;;;;2.61;100.00;97767.97;5037256;28;20232;-68
2023/01/24 09:48:45;;;;;;;20.57;6.27;;;;;;;2.67;100.00;97767.63;5037452;28;20226;-68
2023/01/24 09:51:16;;;;;;;9.10;4.43;;;;;;;2.61;100.00;97773.19;5038326;28;20215;-68
2023/01/24 09:53:46;;;;;;;14.20;6.07;;;;;;;2.84;100.00;97763.97;5036249;28;20213;-67
2023/01/24 09:56:26;;;;;;;10.77;5.33;;;;;;;2.92;100.00;97770.38;5037957;28;20202;-68
2023/01/24 09:59:09;;;;;;;17.63;6.87;;;;;;;2.90;100.00;97764.41;5037148;28;20248;-67
2023/01/24 10:01:38;;;;;;;18.00;6.50;;;;;;;2.73;100.00;97771.59;5037576;28;20210;-67
2023/01/24 10:04:05;;;;;;;17.97;7.30;;;;;;;2.62;100.00;97769.66;5036885;28;20205;-68
2023/01/24 10:06:33;;;;;;;11.43;5.30;;;;;;;2.73;100.00;97769.81;5037106;28;20200;-67
2023/01/24 10:09:12;;;;;;;13.77;5.70;;;;;;;2.84;100.00;97761.34;5036444;28;20222;-67
2023/01/24 10:11:49;;;;;;;16.23;4.93;;;;;;;2.85;100.00;97763.03;5037547;28;20212;-67
2023/01/24 10:14:42;;;;;;;12.70;5.60;;;;;;;2.87;100.00;97764.63;5036611;28;20224;-67
2023/01/24 10:17:22;;;;;;;12.83;5.77;;;;;;;2.87;100.00;97764.63;5037342;28;20233;-68
2023/01/24 10:20:05;;;;;;;15.53;5.30;;;;;;;3.03;100.00;97770.56;5036601;28;20306;-67
2023/01/24 10:22:50;;;;;;;17.57;6.83;;;;;;;3.07;100.00;97766.84;5036328;28;20201;-68
2023/01/24 10:25:23;;;;;;;15.03;6.10;;;;;;;2.96;100.00;97769.25;5036223;28;20203;-67
2023/01/24 10:27:54;;;;;;;16.00;6.13;;;;;;;3.01;100.00;97761.19;5036681;28;20212;-67
2023/01/24 10:30:27;;;;;;;10.87;5.07;;;;;;;2.92;100.00;97765.19;5037195;28;20211;-67
2023/01/24 10:32:58;;;;;;;19.53;6.37;;;;;;;3.01;100.00;97763.78;5037255;28;20199;-67
2023/01/24 10:35:31;;;;;;;17.73;6.93;;;;;;;3.18;100.00;97764.41;5036795;28;20598;-68
2023/01/24 10:38:03;;;;;;;14.07;5.53;;;;;;;3.22;100.00;97758.91;5035606;28;20229;-68
2023/01/24 10:40:30;;;;;;;13.00;5.40;;;;;;;3.06;100.00;97757.34;5036633;28;20204;-68
2023/01/24 10:43:05;;;;;;;18.63;6.13;;;;;;;3.21;100.00;97752.03;5036716;28;20212;-68
2023/01/24 10:45:50;;;;;;;15.00;6.30;;;;;;;3.19;100.00;97758.25;5035656;28;20211;-67
2023/01/24 10:48:28;;;;;;;18.37;6.73;;;;;;;3.28;100.00;97755.09;5036684;28;20234;-68
2023/01/24 10:50:55;;;;;;;9.73;4.97;;;;;;;3.16;100.00;97758.47;5036796;28;20236;-67
2023/01/24 10:53:24;;;;;;;21.07;6.37;;;;;;;3.34;100.00;97760.75;5037298;28;20896;-67
2023/01/24 10:55:59;;;;;;;12.63;5.73;;;;;;;3.21;100.00;97756.41;5036278;28;20240;-67
2023/01/24 10:58:35;;;;;;;13.67;5.73;;;;;;;3.20;100.00;97757.34;5035414;28;20237;-68
2023/01/24 11:01:07;;;;;;;20.73;7.20;;;;;;;3.20;100.00;97752.13;5036301;28;20210;-67
2023/01/24 11:03:34;;;;;;;12.90;5.43;;;;;;;3.16;100.00;97750.66;5036453;28;20235;-67
2023/01/24 11:06:02;;;;;;;17.43;6.63;;;;;;;3.25;100.00;97755.28;5036487;28;20235;-68
2023/01/24 11:08:34;;;;;;;20.10;6.00;;;;;;;3.27;100.00;97750.81;5036381;28;20259;-67
2023/01/24 11:11:01;;;;;;;11.40;4.20;;;;;;;2.99;100.00;97750.00;5037390;28;20207;-67
2023/01/24 11:13:35;;;;;;;17.00;6.20;;;;;;;3.32;100.00;97746.13;5036724;28;20323;-68
2023/01/24 11:16:04;;;;;;;14.13;5.60;;;;;;;3.33;100.00;97747.81;5035863;28;20208;-68
2023/01/24 11:18:33;;;;;;;12.47;5.17;;;;;;;3.34;100.00;97744.28;5036804;28;20231;-68
2023/01/24 11:21:08;;;;;;;16.20;5.97;;;;;;;3.56;100.00;97744.59;5036627;28;20902;-68
2023/01/24 11:23:35;;;;;;;18.73;6.70;;;;;;;3.42;100.00;97740.25;5035999;28;21011;-68
2023/01/24 11:26:04;;;;;;;14.93;5.67;;;;;;;3.52;100.00;97741.34;5035263;28;20312;-68
2023/01/24 11:28:34;;;;;;;17.83;5.33;;;;;;;3.52;100.00;97737.91;5036378;28;20273;-67
2023/01/24 11:31:03;;;;;;;14.70;6.67;;;;;;;3.50;100.00;97739.75;5036504;28;20207;-67
2023/01/24 11:33:40;;;;;;;15.03;6.03;;;;;;;3.32;100.00;97727.91;5036858;28;20205;-67
2023/01/24 11:36:23;;;;;;;15.43;6.63;;;;;;;3.46;100.00;97728.69;5036285;28;20213;-67
2023/01/24 11:38:52;;;;;;;16.07;6.17;;;;;;;3.49;100.00;97727.66;5035991;28;20231;-67
2023/01/24 11:41:27;;;;;;;16.23;6.30;;;;;;;3.55;100.00;97722.88;5036873;28;20212;-67
2023/01/24 11:44:28;;;;;;;18.73;6.67;;;;;;;3.56;100.00;97729.78;5036478;28;20200;-67
2023/01/24 11:47:06;;;;;;;18.53;7.20;;;;;;;3.56;100.00;97721.97;5036233;28;20211;-68
2023/01/24 11:49:57;;;;;;;19.17;7.50;;;;;;;3.62;100.00;97718.97;5036098;28;20232;-68
2023/01/24 11:52:48;;;;;;;19.10;6.83;;;;;;;3.73;100.00;97712.13;5037899;28;20198;-67
2023/01/24 11:55:27;;;;;;;20.43;7.27;;;;;;;3.64;100.00;97715.31;5035142;28;20219;-67
2023/01/24 11:58:02;;;;;;;16.27;7.00;;;;;;;3.42;100.00;97721.19;5035766;28;20228;-68
2023/01/24 12:00:38;;;;;;;16.60;6.00;;;;;;;3.47;100.00;97708.69;5036634;28;20770;-68
2023/01/24 12:03:31;;;;;;;15.90;6.43;;;;;;;3.64;100.00;97707.50;5035471;28;21076;-67
2023/01/24 12:06:10;;;;;;;22.73;7.93;;;;;;;3.64;100.00;97702.28;5034115;28;20215;-67
2023/01/24 12:08:51;;;;;;;15.60;7.13;;;;;;;3.62;100.00;97698.94;5033287;28;20234;-67
2023/01/24 12:11:26;;;;;;;24.83;8.47;;;;;;;3.61;100.00;97700.81;5036205;28;20293;-67
2023/01/24 12:14:10;;;;;;;23.33;8.40;;;;;;;3.73;100.00;97698.25;5035881;28;20569;-67
2023/01/24 12:16:47;;;;;;;25.87;7.57;;;;;;;3.72;100.00;97697.41;5036088;28;20210;-67
2023/01/24 12:19:33;;;;;;;13.33;5.13;;;;;;;3.74;100.00;97697.31;5036088;28;20220;-67
2023/01/24 12:22:01;;;;;;;17.83;7.43;;;;;;;3.65;100.00;97692.69;5034154;28;20303;-67
2023/01/24 12:24:30;;;;;;;19.00;7.70;;;;;;;3.67;100.00;97691.66;5034345;28;20204;-67
2023/01/24 12:27:02;;;;;;;16.53;6.80;;;;;;;3.71;100.00;97680.09;5035246;28;20197;-67
2023/01/24 12:29:34;;;;;;;19.63;7.10;;;;;;;3.79;100.00;97683.06;5036423;28;20231;-67
2023/01/24 12:32:04;;;;;;;15.20;6.67;;;;;;;3.89;100.00;97680.66;5036101;28;20208;-67
2023/01/24 12:34:42;;;;;;;18.70;7.63;;;;;;;3.98;100.00;97682.66;5034482;28;20205;-67
2023/01/24 12:37:16;;;;;;;17.60;6.43;;;;;;;3.62;100.00;97672.88;5036090;28;20196;-67
2023/01/24 12:39:51;;;;;;;20.67;6.83;;;;;;;3.85;100.00;97673.97;5036260;28;20252;-67
2023/01/24 12:42:23;;;;;;;15.83;6.67;;;;;;;3.86;100.00;97676.47;5037719;28;20242;-67
2023/01/24 12:44:53;;;;;;;16.73;6.23;;;;;;;3.90;100.00;97671.91;5040794;28;20585;-67
2023/01/24 12:47:37;;;;;;;20.33;6.70;;;;;;;3.94;100.00;97668.97;5038997;28;20211;-68
2023/01/24 12:50:17;;;;;;;18.20;7.20;;;;;;;3.98;100.00;97669.63;5039606;28;20221;-68
2023/01/24 12:52:53;;;;;;;20.37;7.00;;;;;;;4.02;100.00;97669.31;5039872;28;20203;-67
2023/01/24 12:55:23;;;;;;;17.90;6.53;;;;;;;3.93;100.00;97669.09;5038125;28;20214;-68
2023/01/24 12:57:54;;;;;;;15.70;6.30;;;;;;;3.94;100.00;97666.38;5037355;28;20228;-68
2023/01/24 13:00:24;;;;;;;18.50;6.80;;;;;;;3.78;100.00;97667.47;5039110;28;20251;-68
2023/01/24 13:03:23;;;;;;;17.20;7.37;;;;;;;4.03;100.00;97663.13;5039125;28;20204;-67
2023/01/24 13:06:01;;;;;;;17.83;6.60;;;;;;;3.95;100.00;97660.22;5039172;28;20201;-68
2023/01/24 13:08:47;;;;;;;20.10;6.57;;;;;;;3.95;100.00;97660.22;5039367;28;20224;-68
2023/01/24 13:11:25;;;;;;;17.00;6.70;;;;;;;3.97;100.00;97658.34;5039698;28;20245;-68
2023/01/24 13:14:02;;;;;;;15.47;6.37;;;;;;;3.89;100.00;97658.00;5038626;28;20204;-68
2023/01/24 13:16:58;;;;;;;16.47;6.77;;;;;;;3.78;100.00;97657.91;5039688;28;20231;-68
2023/01/24 13:19:36;;;;;;;15.93;6.90;;;;;;;3.79;100.00;97649.16;5038974;28;20238;-68
2023/01/24 13:22:18;;;;;;;19.40;6.67;;;;;;;3.88;100.00;97658.13;5038162;28;20219;-68
2023/01/24 13:24:58;;;;;;;18.10;7.20;;;;;;;3.86;100.00;97657.41;5037505;28;20214;-68
2023/01/24 13:27:41;;;;;;;11.67;5.60;;;;;;;4.02;100.00;97655.44;5038753;28;20192;-68
2023/01/24 13:30:22;;;;;;;16.00;7.13;;;;;;;3.98;100.00;97664.41;5039311;28;20250;-68
2023/01/24 13:32:51;;;;;;;15.67;6.30;;;;;;;3.82;100.00;97664.59;5038960;28;20204;-68
2023/01/24 13:35:21;;;;;;;15.73;6.27;;;;;;;3.98;100.00;97665.22;5037971;28;20208;-68
2023/01/24 13:37:54;;;;;;;19.87;7.33;;;;;;;3.90;100.00;97667.50;5038885;28;20236;-68